Time;durP1;ratioP1;P1;durP2;ratioP2;P2;SDS_P1;SDS_P2;PMS_P1;PMS_P2;Temp;Humidity;BMP_temperature;BMP_pressure;BME280_temperature;BME280_humidity;BME280_pressure;Samples;Min_cycle;Max_cycle;Signal;HPM_P1;HPM_P2
2023/10/11 00:01:11;;;;;;;13.38;8.38;;;16.60;99.90;;;;;;4950866;28;89994;-35
2023/10/11 00:03:45;;;;;;;10.05;8.02;;;16.60;99.90;;;;;;4959353;28;89197;-33
2023/10/11 00:06:13;;;;;;;9.85;7.32;;;16.60;99.90;;;;;;4961668;28;89596;-33
2023/10/11 00:08:40;;;;;;;12.35;8.18;;;16.50;99.90;;;;;;4943136;28;89797;-33
2023/10/11 00:11:08;;;;;;;9.32;7.97;;;16.50;99.90;;;;;;4955075;28;92374;-33
2023/10/11 00:13:36;;;;;;;12.95;8.38;;;16.50;99.90;;;;;;4944932;28;89731;-31
2023/10/11 00:16:10;;;;;;;12.32;9.00;;;16.50;99.90;;;;;;4941737;28;90700;-33
2023/10/11 00:18:38;;;;;;;12.05;7.97;;;16.50;99.90;;;;;;4941849;28;89156;-32
2023/10/11 00:21:15;;;;;;;12.07;8.47;;;16.50;99.90;;;;;;4925324;28;90824;-35
2023/10/11 00:23:48;;;;;;;11.95;8.45;;;16.50;99.90;;;;;;4940997;28;90936;-32
2023/10/11 00:26:14;;;;;;;16.30;9.48;;;16.40;99.90;;;;;;4956303;28;89798;-32
2023/10/11 00:28:40;;;;;;;10.85;9.40;;;16.50;99.90;;;;;;4930604;28;90162;-34
2023/10/11 00:31:13;;;;;;;13.70;9.07;;;16.50;99.90;;;;;;4943089;28;90277;-35
2023/10/11 00:33:39;;;;;;;15.57;8.30;;;16.40;99.90;;;;;;4941454;28;89828;-33
2023/10/11 00:36:06;;;;;;;12.68;9.30;;;16.40;99.90;;;;;;4944862;28;90285;-32
2023/10/11 00:38:32;;;;;;;18.85;10.45;;;16.40;99.90;;;;;;4953154;28;88254;-33
2023/10/11 00:41:07;;;;;;;16.63;9.98;;;16.40;99.90;;;;;;4942556;28;88902;-35
2023/10/11 00:43:34;;;;;;;16.73;9.65;;;16.40;99.90;;;;;;4951475;28;89077;-36
2023/10/11 00:46:08;;;;;;;14.93;10.07;;;16.30;99.90;;;;;;4947053;28;90362;-33
2023/10/11 00:48:51;;;;;;;17.55;10.15;;;16.40;99.90;;;;;;4960293;28;88298;-33
2023/10/11 00:51:23;;;;;;;15.88;9.70;;;16.30;99.90;;;;;;4930351;28;89774;-33
2023/10/11 00:53:50;;;;;;;12.90;9.63;;;16.30;99.90;;;;;;4940743;28;89487;-32
2023/10/11 00:56:18;;;;;;;17.10;10.50;;;16.30;99.90;;;;;;4940914;28;90006;-34
2023/10/11 00:58:44;;;;;;;;;;;16.30;99.90;;;;;;4940727;28;89618;-33
2023/10/11 01:01:10;;;;;;;16.45;9.15;;;16.30;99.90;;;;;;4942792;28;90325;-33
2023/10/11 01:03:37;;;;;;;14.40;10.55;;;16.30;99.90;;;;;;4941268;28;88093;-35
2023/10/11 01:06:04;;;;;;;10.68;9.60;;;16.20;99.90;;;;;;4940971;28;89396;-35
2023/10/11 01:08:38;;;;;;;16.05;10.68;;;16.30;99.90;;;;;;4940970;28;89627;-33
2023/10/11 01:11:09;;;;;;;12.75;9.80;;;16.20;99.90;;;;;;4952276;28;90103;-32
2023/10/11 01:13:40;;;;;;;17.27;11.05;;;16.20;99.90;;;;;;4959108;28;90587;-31
2023/10/11 01:16:06;;;;;;;14.98;11.20;;;16.20;99.90;;;;;;4960316;28;89296;-31
2023/10/11 01:18:33;;;;;;;16.10;11.80;;;16.20;99.90;;;;;;4955424;28;90188;-34
2023/10/11 01:21:03;;;;;;;15.65;11.25;;;16.20;99.90;;;;;;4950826;28;90350;-34
2023/10/11 01:23:28;;;;;;;13.93;11.02;;;16.20;99.90;;;;;;4959267;28;90709;-32
2023/10/11 01:25:55;;;;;;;20.55;11.98;;;16.20;99.90;;;;;;4948161;28;89761;-33
2023/10/11 01:28:21;;;;;;;19.52;11.27;;;16.20;99.90;;;;;;4926178;28;90116;-31
2023/10/11 01:30:47;;;;;;;19.48;12.10;;;16.20;99.90;;;;;;4953865;28;90572;-35
2023/10/11 01:33:16;;;;;;;16.65;11.07;;;16.20;99.90;;;;;;4958313;28;92065;-34
2023/10/11 01:35:42;;;;;;;19.38;12.00;;;16.20;99.90;;;;;;4958287;28;89786;-32
2023/10/11 01:38:08;;;;;;;20.10;12.85;;;16.20;99.90;;;;;;4958089;28;89389;-35
2023/10/11 01:40:33;;;;;;;14.63;11.45;;;16.20;99.90;;;;;;4959281;28;89906;-33
2023/10/11 01:43:02;;;;;;;13.05;11.75;;;16.10;99.90;;;;;;4958882;28;89907;-35
2023/10/11 01:45:28;;;;;;;17.67;11.50;;;16.20;99.90;;;;;;4958409;28;89373;-33
2023/10/11 01:47:56;;;;;;;23.33;13.00;;;16.10;99.90;;;;;;4959201;28;88450;-35
2023/10/11 01:50:24;;;;;;;19.63;13.60;;;16.10;99.90;;;;;;4958649;28;90746;-32
2023/10/11 01:52:50;;;;;;;;;;;16.10;99.90;;;;;;4958889;28;89894;-31
2023/10/11 01:55:17;;;;;;;18.75;11.98;;;16.10;99.90;;;;;;4960108;28;89132;-32
2023/10/11 01:57:46;;;;;;;17.17;12.18;;;16.10;99.90;;;;;;4959998;28;88643;-32
2023/10/11 02:00:24;;;;;;;19.00;13.27;;;16.00;99.90;;;;;;4945107;28;89746;-35
2023/10/11 02:02:55;;;;;;;19.65;12.77;;;16.10;99.90;;;;;;4958069;28;91525;-32
2023/10/11 02:05:21;;;;;;;16.50;12.38;;;16.00;99.90;;;;;;4959088;28;90561;-33
2023/10/11 02:07:47;;;;;;;16.73;12.07;;;16.00;99.90;;;;;;4958820;28;89107;-31
2023/10/11 02:10:13;;;;;;;20.40;12.90;;;16.00;99.90;;;;;;4941624;28;90062;-33
2023/10/11 02:12:46;;;;;;;24.15;12.60;;;16.00;99.90;;;;;;4958357;28;89725;-35
2023/10/11 02:15:30;;;;;;;15.40;12.13;;;16.00;99.90;;;;;;4959053;28;88967;-33
2023/10/11 02:17:56;;;;;;;17.88;12.82;;;16.00;99.90;;;;;;4958569;28;89198;-32
2023/10/11 02:20:22;;;;;;;19.50;13.77;;;16.00;99.90;;;;;;4958577;28;89700;-33
2023/10/11 02:22:53;;;;;;;20.40;13.15;;;16.00;99.90;;;;;;4946541;28;89948;-32
2023/10/11 02:25:24;;;;;;;17.20;13.63;;;16.00;99.90;;;;;;4926757;28;89184;-33
2023/10/11 02:27:50;;;;;;;20.52;13.63;;;16.00;99.90;;;;;;4952361;28;89407;-32
2023/10/11 02:30:24;;;;;;;16.08;13.48;;;15.90;99.90;;;;;;4951293;28;90141;-32
2023/10/11 02:33:00;;;;;;;22.75;14.82;;;15.90;99.90;;;;;;4938815;28;89961;-34
2023/10/11 02:35:31;;;;;;;19.13;14.02;;;15.90;99.90;;;;;;4939355;28;90219;-33
2023/10/11 02:37:59;;;;;;;22.33;13.52;;;15.90;99.90;;;;;;4940461;28;90156;-33
2023/10/11 02:40:25;;;;;;;17.98;13.05;;;15.80;99.90;;;;;;4939457;28;90980;-35
2023/10/11 02:42:55;;;;;;;24.15;13.73;;;15.80;99.90;;;;;;4944113;28;88524;-33
2023/10/11 02:45:24;;;;;;;22.73;14.93;;;15.80;99.90;;;;;;4945537;28;89882;-32
2023/10/11 02:47:59;;;;;;;16.58;13.57;;;15.80;99.90;;;;;;4926387;28;88842;-33
2023/10/11 02:50:36;;;;;;;23.10;13.80;;;15.80;99.90;;;;;;4934557;28;90162;-32
2023/10/11 02:53:21;;;;;;;20.85;13.63;;;15.80;99.90;;;;;;4948715;28;90191;-34
2023/10/11 02:55:59;;;;;;;17.67;14.68;;;15.70;99.90;;;;;;4944136;28;88747;-31
2023/10/11 02:58:29;;;;;;;20.58;13.20;;;15.70;99.90;;;;;;4939084;28;89573;-35
2023/10/11 03:01:00;;;;;;;25.55;14.55;;;15.70;99.90;;;;;;4921009;28;90991;-34
2023/10/11 03:03:29;;;;;;;17.63;14.73;;;15.60;99.90;;;;;;4937657;28;88667;-33
2023/10/11 03:05:57;;;;;;;15.65;12.55;;;15.60;99.90;;;;;;4938630;28;90242;-32
2023/10/11 03:08:26;;;;;;;23.10;13.65;;;15.60;99.90;;;;;;4951023;28;88597;-34
2023/10/11 03:10:57;;;;;;;;;;;15.60;99.90;;;;;;4945949;28;90022;-34
2023/10/11 03:13:29;;;;;;;19.33;14.57;;;15.50;99.90;;;;;;4958003;28;89828;-35
2023/10/11 03:15:55;;;;;;;21.80;14.05;;;15.50;99.90;;;;;;4947574;28;90454;-33
2023/10/11 03:18:26;;;;;;;21.77;14.40;;;15.50;99.90;;;;;;4955651;28;89874;-34
2023/10/11 03:21:07;;;;;;;18.80;13.38;;;15.50;99.90;;;;;;4957142;28;89028;-34
2023/10/11 03:23:43;;;;;;;17.70;14.88;;;15.50;99.90;;;;;;4956819;28;89687;-34
2023/10/11 03:26:17;;;;;;;19.02;16.15;;;15.40;99.90;;;;;;4958223;28;90126;-36
2023/10/11 03:28:44;;;;;;;23.13;14.30;;;15.40;99.90;;;;;;4926964;28;89134;-34
2023/10/11 03:31:12;;;;;;;22.50;14.77;;;15.50;99.90;;;;;;4937709;28;90344;-33
2023/10/11 03:33:40;;;;;;;19.23;14.27;;;15.40;99.90;;;;;;4945775;28;89159;-34
2023/10/11 03:36:17;;;;;;;18.00;14.15;;;15.40;99.90;;;;;;4942528;28;89670;-33
2023/10/11 03:38:51;;;;;;;20.38;13.57;;;15.40;99.90;;;;;;4939374;28;89271;-31
2023/10/11 03:41:29;;;;;;;16.63;13.43;;;15.40;99.90;;;;;;4956263;28;89776;-31
2023/10/11 03:44:09;;;;;;;;;;;15.40;99.90;;;;;;4955820;28;90519;-34
2023/10/11 03:46:38;;;;;;;17.77;15.05;;;15.40;99.90;;;;;;4940300;28;88164;-33
2023/10/11 03:49:36;;;;;;;17.85;13.90;;;15.30;99.90;;;;;;4942179;28;87636;-34
2023/10/11 03:51:59;;;;;;;19.45;13.70;;;15.30;99.90;;;;;;4943142;28;90823;-35
2023/10/11 03:54:25;;;;;;;18.33;14.77;;;15.30;99.90;;;;;;4938699;28;89462;-31
2023/10/11 03:56:55;;;;;;;19.45;14.77;;;15.20;99.90;;;;;;4938011;28;89590;-34
2023/10/11 03:59:25;;;;;;;21.33;14.13;;;15.20;99.90;;;;;;4938393;28;88496;-32
2023/10/11 04:02:00;;;;;;;25.70;14.15;;;15.20;99.90;;;;;;4933524;28;91450;-32
2023/10/11 04:04:26;;;;;;;21.98;15.00;;;15.20;99.90;;;;;;4950434;28;89945;-35
2023/10/11 04:06:57;;;;;;;18.23;13.77;;;15.20;99.90;;;;;;4939052;28;89366;-33
2023/10/11 04:09:37;;;;;;;21.73;14.88;;;15.20;99.90;;;;;;4938436;28;90146;-34
2023/10/11 04:12:04;;;;;;;25.23;15.45;;;15.30;99.90;;;;;;4951492;28;91466;-33
2023/10/11 04:14:44;;;;;;;25.90;13.18;;;15.20;99.90;;;;;;4920521;28;89547;-34
2023/10/11 04:19:50;;;;;;;23.33;14.75;;;15.20;99.90;;;;;;4953441;28;88997;-33
2023/10/11 04:22:18;;;;;;;23.05;14.07;;;15.20;99.90;;;;;;4940421;28;90203;-33
2023/10/11 04:24:45;;;;;;;15.55;13.90;;;15.20;99.90;;;;;;4953781;28;89842;-35
2023/10/11 04:29:50;;;;;;;21.17;14.98;;;15.20;99.90;;;;;;4959528;28;89508;-33
2023/10/11 04:32:56;;;;;;;18.10;13.90;;;15.20;99.90;;;;;;4959576;28;89119;-32
2023/10/11 04:35:25;;;;;;;20.75;14.82;;;15.20;99.90;;;;;;4956257;28;93072;-32
2023/10/11 04:38:00;;;;;;;19.80;15.25;;;15.20;99.90;;;;;;4958876;28;91020;-33
2023/10/11 04:43:04;;;;;;;19.10;12.85;;;15.20;99.90;;;;;;4959148;28;90315;-32
2023/10/11 04:45:32;;;;;;;15.55;13.93;;;15.20;99.90;;;;;;4959439;28;89733;-33
2023/10/11 04:47:58;;;;;;;23.58;13.40;;;15.20;99.90;;;;;;4959864;28;89244;-34
2023/10/11 04:50:24;;;;;;;26.55;15.70;;;15.20;99.90;;;;;;4959842;28;89017;-33
2023/10/11 04:52:49;;;;;;;24.60;15.02;;;15.20;99.90;;;;;;4942343;28;90063;-34
2023/10/11 04:55:15;;;;;;;18.23;13.82;;;15.20;99.90;;;;;;4944781;28;89289;-33
2023/10/11 04:58:04;;;;;;;19.05;13.88;;;15.20;99.90;;;;;;4940652;28;89832;-32
2023/10/11 05:00:31;;;;;;;18.55;14.50;;;15.20;99.90;;;;;;4953159;28;89661;-31
2023/10/11 05:02:58;;;;;;;20.00;13.25;;;15.20;99.90;;;;;;4934272;28;89637;-32
2023/10/11 05:05:24;;;;;;;24.05;13.98;;;15.20;99.90;;;;;;4940399;28;90235;-32
2023/10/11 05:08:01;;;;;;;18.33;13.23;;;15.20;99.90;;;;;;4940671;28;89613;-33
2023/10/11 05:13:05;;;;;;;21.05;12.07;;;15.20;99.90;;;;;;4959598;28;89107;-35
2023/10/11 05:15:42;;;;;;;;;;;15.20;99.90;;;;;;4960613;28;89886;-32
2023/10/11 05:18:07;;;;;;;20.27;13.45;;;15.20;99.90;;;;;;4949300;28;89525;-34
2023/10/11 05:23:11;;;;;;;21.50;14.07;;;15.20;99.90;;;;;;4959481;28;89489;-34
2023/10/11 05:25:37;;;;;;;19.25;13.30;;;15.20;99.90;;;;;;4959703;28;89916;-33
2023/10/11 05:31:00;;;;;;;23.20;13.77;;;15.20;99.90;;;;;;4959866;28;89668;-32
2023/10/11 05:33:58;;;;;;;22.75;15.30;;;15.10;99.90;;;;;;4928713;28;90635;-33
2023/10/11 05:52:55;;;;;;;21.08;15.57;;;15.20;99.90;;;;;;4959404;28;90399;-34
2023/10/11 05:55:22;;;;;;;23.35;15.20;;;15.10;99.90;;;;;;4959451;28;90405;-34
2023/10/11 05:57:48;;;;;;;30.38;14.82;;;15.10;99.90;;;;;;4941132;28;89817;-34
2023/10/11 06:00:25;;;;;;;20.30;14.23;;;15.10;99.90;;;;;;4959581;28;90063;-33
2023/10/11 06:02:52;;;;;;;21.83;15.48;;;15.10;99.90;;;;;;4960419;28;88532;-31
2023/10/11 06:05:22;;;;;;;20.80;15.13;;;15.10;99.90;;;;;;4958913;28;90229;-34
2023/10/11 06:08:00;;;;;;;21.65;14.82;;;15.00;99.90;;;;;;4959240;28;89845;-34
2023/10/11 06:10:32;;;;;;;;;;;15.10;99.90;;;;;;4963603;28;89851;-34
2023/10/11 06:12:58;;;;;;;20.77;15.70;;;15.00;99.90;;;;;;4978634;28;89817;-33
2023/10/11 06:15:24;;;;;;;30.33;14.68;;;15.00;99.90;;;;;;4955435;28;88919;-34
2023/10/11 06:17:54;;;;;;;28.52;16.90;;;15.00;99.90;;;;;;4956099;28;90315;-32
2023/10/11 06:20:23;;;;;;;31.83;17.40;;;15.00;99.90;;;;;;4950820;28;90310;-33
2023/10/11 06:22:51;;;;;;;25.00;15.93;;;15.10;99.90;;;;;;4957211;28;87723;-33
2023/10/11 06:25:30;;;;;;;23.50;15.00;;;15.10;99.90;;;;;;4962227;28;89888;-32
2023/10/11 06:30:27;;;;;;;26.20;16.08;;;15.20;99.90;;;;;;4950403;28;89973;-32
2023/10/11 06:32:53;;;;;;;28.08;16.95;;;15.20;99.90;;;;;;4962743;28;89807;-33
2023/10/11 06:35:24;;;;;;;23.33;16.92;;;15.20;99.90;;;;;;4972533;28;90242;-35
2023/10/11 06:37:54;;;;;;;32.35;17.25;;;15.20;99.90;;;;;;4972684;28;88843;-31
2023/10/11 06:43:07;;;;;;;24.98;16.98;;;15.20;99.90;;;;;;4932061;28;90774;-35
2023/10/11 06:45:33;;;;;;;25.67;18.60;;;15.20;99.90;;;;;;4965233;28;89386;-36
2023/10/11 06:48:06;;;;;;;26.67;19.60;;;15.30;99.90;;;;;;4957613;28;90204;-32
2023/10/11 06:50:36;;;;;;;23.67;17.65;;;15.30;99.90;;;;;;4957120;28;91019;-34
2023/10/11 06:53:09;;;;;;;26.13;18.42;;;15.30;99.90;;;;;;4956724;28;89720;-32
2023/10/11 06:55:39;;;;;;;22.80;17.38;;;15.30;99.90;;;;;;4958306;28;89358;-35
2023/10/11 06:58:09;;;;;;;30.70;18.90;;;15.40;99.90;;;;;;4956795;28;89597;-32
2023/10/11 07:00:45;;;;;;;29.02;18.95;;;15.40;99.90;;;;;;4954716;28;90538;-35
2023/10/11 07:03:26;;;;;;;29.90;17.60;;;15.40;99.90;;;;;;4952284;28;89875;-34
2023/10/11 07:05:59;;;;;;;33.38;20.00;;;15.40;99.90;;;;;;4956793;28;89564;-31
2023/10/11 07:08:31;;;;;;;25.23;17.23;;;15.50;99.90;;;;;;4961466;28;90000;-33
2023/10/11 07:13:49;;;;;;;31.42;19.58;;;15.60;99.90;;;;;;4956584;28;89838;-34
2023/10/11 07:16:18;;;;;;;26.45;18.70;;;15.70;99.90;;;;;;4951718;28;91122;-32
2023/10/11 07:18:45;;;;;;;31.25;19.38;;;15.70;99.90;;;;;;4955089;28;91573;-33
2023/10/11 07:21:11;;;;;;;25.00;19.33;;;15.70;99.90;;;;;;4955391;28;90646;-32
2023/10/11 07:26:23;;;;;;;27.02;17.55;;;15.70;99.90;;;;;;4954733;28;90437;-34
2023/10/11 07:28:52;;;;;;;26.23;18.75;;;15.80;99.90;;;;;;4957900;28;90540;-35
2023/10/11 07:31:32;;;;;;;31.05;19.13;;;15.80;99.90;;;;;;4952205;28;88983;-31
2023/10/11 07:33:58;;;;;;;36.50;20.88;;;15.90;99.90;;;;;;4959015;28;89349;-34
2023/10/11 07:36:25;;;;;;;32.28;20.05;;;15.90;99.90;;;;;;4960501;28;90810;-33
2023/10/11 07:38:54;;;;;;;32.70;19.40;;;15.90;99.90;;;;;;4963271;28;89273;-34
2023/10/11 07:41:27;;;;;;;31.25;20.65;;;15.90;99.90;;;;;;4955562;28;90808;-35
2023/10/11 07:43:55;;;;;;;32.42;20.98;;;15.90;99.90;;;;;;4958653;28;89386;-35
2023/10/11 07:46:22;;;;;;;25.75;19.42;;;16.00;99.90;;;;;;4956127;28;90283;-34
2023/10/11 07:48:48;;;;;;;40.30;21.73;;;16.10;99.90;;;;;;4954862;28;90172;-33
2023/10/11 07:51:14;;;;;;;34.13;18.52;;;16.00;99.90;;;;;;4965057;28;88745;-34
2023/10/11 07:53:43;;;;;;;40.70;21.40;;;16.00;99.90;;;;;;4961221;28;89387;-35
2023/10/11 07:56:09;;;;;;;27.40;19.17;;;16.10;99.90;;;;;;4981323;28;90296;-33
2023/10/11 07:58:45;;;;;;;34.83;20.08;;;16.10;99.90;;;;;;4962871;28;90562;-34
2023/10/11 08:01:30;;;;;;;31.33;19.88;;;16.10;99.90;;;;;;4960859;28;90218;-32
2023/10/11 08:03:57;;;;;;;26.63;20.75;;;16.10;99.90;;;;;;4941619;28;88876;-31
2023/10/11 08:06:25;;;;;;;32.15;22.40;;;16.10;99.90;;;;;;4954280;28;90373;-33
2023/10/11 08:08:59;;;;;;;33.90;22.27;;;16.10;99.90;;;;;;4963981;28;89304;-34
2023/10/11 08:11:37;;;;;;;36.33;20.55;;;16.10;99.90;;;;;;4972134;28;91523;-33
2023/10/11 08:14:14;;;;;;;36.00;22.05;;;16.10;99.90;;;;;;4961874;28;90415;-33
2023/10/11 08:16:41;;;;;;;38.17;24.25;;;16.10;99.90;;;;;;4959301;28;90257;-32
2023/10/11 08:19:07;;;;;;;32.80;24.02;;;16.20;99.90;;;;;;4959980;28;89753;-32
2023/10/11 08:21:32;;;;;;;36.78;23.15;;;16.20;99.90;;;;;;4960750;28;91311;-34
2023/10/11 08:23:58;;;;;;;35.58;25.08;;;16.20;99.90;;;;;;4960641;28;89644;-33
2023/10/11 08:26:32;;;;;;;35.40;22.75;;;16.20;99.90;;;;;;4960379;28;90406;-31
2023/10/11 08:29:05;;;;;;;41.08;24.27;;;16.30;99.90;;;;;;4960429;28;90350;-31
2023/10/11 08:34:00;;;;;;;34.53;23.10;;;16.30;99.90;;;;;;4961364;28;90758;-34
2023/10/11 08:36:29;;;;;;;45.70;26.40;;;16.30;99.90;;;;;;4960707;28;88868;-33
2023/10/11 08:38:56;;;;;;;37.03;24.98;;;16.30;99.90;;;;;;4960774;28;89518;-32
2023/10/11 08:41:22;;;;;;;38.40;27.08;;;16.30;99.90;;;;;;4960307;28;90068;-31
2023/10/11 08:43:49;;;;;;;39.90;26.35;;;16.30;99.90;;;;;;4959426;28;89370;-34
2023/10/11 08:46:18;;;;;;;40.92;26.15;;;16.40;99.90;;;;;;4959278;28;89906;-35
2023/10/11 08:48:49;;;;;;;44.55;27.35;;;16.40;99.90;;;;;;4958680;28;90341;-33
2023/10/11 08:51:21;;;;;;;39.08;27.55;;;16.40;99.90;;;;;;4949537;28;90376;-30
2023/10/11 08:53:48;;;;;;;39.08;27.17;;;16.40;99.90;;;;;;4960058;28;89548;-33
2023/10/11 08:56:17;;;;;;;30.50;23.83;;;16.40;99.90;;;;;;4959759;28;90243;-33
2023/10/11 08:58:53;;;;;;;39.33;26.92;;;16.40;99.90;;;;;;4959636;28;89778;-33
2023/10/11 09:01:19;;;;;;;47.28;28.60;;;16.40;99.90;;;;;;4960474;28;88331;-34
2023/10/11 09:04:03;;;;;;;40.47;26.90;;;16.40;99.90;;;;;;4953881;28;89583;-34
2023/10/11 09:06:31;;;;;;;48.00;26.38;;;16.40;99.90;;;;;;4955565;28;89915;-34
2023/10/11 09:09:00;;;;;;;46.78;27.65;;;16.40;99.90;;;;;;4960039;28;90169;-32
2023/10/11 09:11:28;;;;;;;40.80;29.02;;;16.40;99.90;;;;;;4971959;28;90801;-32
2023/10/11 09:14:22;;;;;;;41.67;28.02;;;16.40;99.90;;;;;;4959936;28;90279;-32
2023/10/11 09:16:52;;;;;;;41.38;26.77;;;16.50;99.90;;;;;;4958666;28;90566;-34
2023/10/11 09:19:21;;;;;;;38.08;25.92;;;16.40;99.90;;;;;;4959630;28;89909;-35
2023/10/11 09:22:03;;;;;;;38.38;27.25;;;16.40;99.90;;;;;;4958983;28;88104;-35
2023/10/11 09:24:37;;;;;;;40.08;25.90;;;16.40;99.90;;;;;;4959571;28;89680;-33
2023/10/11 09:29:42;;;;;;;39.05;25.85;;;16.40;99.90;;;;;;4955236;28;90469;-34
2023/10/11 09:32:09;;;;;;;44.17;26.70;;;16.50;99.90;;;;;;4947031;28;90271;-34
2023/10/11 09:34:41;;;;;;;41.00;24.38;;;16.50;99.90;;;;;;4940694;28;89657;-33
2023/10/11 09:37:11;;;;;;;47.53;23.60;;;16.50;99.90;;;;;;4959691;28;90034;-35
2023/10/11 09:39:42;;;;;;;40.97;25.73;;;16.60;99.90;;;;;;4957231;28;90716;-34
2023/10/11 09:42:13;;;;;;;41.80;24.65;;;16.60;99.90;;;;;;4959493;28;90527;-35
2023/10/11 09:44:40;;;;;;;37.25;22.73;;;16.60;99.90;;;;;;4958509;28;88052;-31
2023/10/11 09:47:16;;;;;;;38.95;24.98;;;16.70;99.90;;;;;;4958989;28;90182;-33
2023/10/11 09:49:42;;;;;;;43.30;24.85;;;16.70;99.90;;;;;;4958093;28;90258;-33
2023/10/11 09:52:16;;;;;;;31.30;21.85;;;16.80;99.90;;;;;;4958758;28;90304;-33
2023/10/11 09:54:42;;;;;;;33.03;20.17;;;16.80;99.90;;;;;;4957728;28;88476;-35
2023/10/11 09:57:41;;;;;;;41.05;23.48;;;16.80;99.90;;;;;;4958773;28;90713;-33
2023/10/11 10:00:34;;;;;;;41.95;21.80;;;16.80;99.90;;;;;;4953736;28;90029;-30
2023/10/11 10:03:00;;;;;;;32.63;21.80;;;16.80;99.90;;;;;;4951526;28;89332;-34
2023/10/11 10:05:30;;;;;;;32.92;22.10;;;16.80;99.90;;;;;;4958043;28;88915;-32
2023/10/11 10:08:13;;;;;;;37.13;21.88;;;16.80;99.90;;;;;;4959310;28;89043;-35
2023/10/11 10:10:54;;;;;;;38.00;21.23;;;16.90;99.90;;;;;;4964398;28;89858;-32
2023/10/11 10:13:24;;;;;;;37.42;21.25;;;16.90;99.90;;;;;;4961621;28;89597;-34
2023/10/11 10:15:52;;;;;;;31.05;20.00;;;17.00;99.90;;;;;;4957826;28;89433;-35
2023/10/11 10:18:22;;;;;;;31.95;21.17;;;17.00;99.90;;;;;;4958157;28;90916;-34
2023/10/11 10:21:04;;;;;;;28.35;20.48;;;17.00;99.90;;;;;;4958783;28;89211;-32
2023/10/11 10:23:38;;;;;;;29.48;20.35;;;17.00;99.90;;;;;;4957511;28;88832;-32
2023/10/11 10:26:03;;;;;;;24.85;19.52;;;17.00;99.90;;;;;;4958617;28;88921;-34
2023/10/11 10:28:32;;;;;;;33.50;20.13;;;17.00;99.90;;;;;;4957829;28;89881;-32
2023/10/11 10:31:04;;;;;;;26.25;19.08;;;17.00;99.90;;;;;;4958107;28;90556;-31
2023/10/11 10:33:35;;;;;;;28.95;19.20;;;17.10;99.90;;;;;;4946160;28;90209;-32
2023/10/11 10:36:21;;;;;;;29.60;19.85;;;17.10;99.90;;;;;;4958619;28;88471;-34
2023/10/11 10:41:36;;;;;;;26.65;18.65;;;17.20;99.90;;;;;;4958364;28;90642;-34
2023/10/11 10:44:11;;;;;;;22.98;16.85;;;17.20;99.90;;;;;;4958310;28;89610;-31
2023/10/11 10:46:49;;;;;;;19.63;14.25;;;17.30;99.90;;;;;;4968518;28;89978;-33
2023/10/11 10:49:19;;;;;;;27.98;17.20;;;17.40;99.90;;;;;;4959597;28;90401;-31
2023/10/11 10:51:47;;;;;;;27.52;16.13;;;17.40;99.90;;;;;;4977353;28;91958;-36
2023/10/11 10:54:14;;;;;;;20.67;13.45;;;17.50;99.90;;;;;;4957701;28;89735;-34
2023/10/11 10:56:45;;;;;;;24.08;14.15;;;17.50;99.90;;;;;;4957394;28;89287;-32
2023/10/11 10:59:20;;;;;;;26.27;16.65;;;17.50;99.90;;;;;;4958482;28;90249;-32
2023/10/11 11:01:47;;;;;;;19.60;14.35;;;17.60;99.90;;;;;;4957925;28;89901;-32
2023/10/11 11:04:16;;;;;;;25.10;14.93;;;17.60;99.90;;;;;;4958159;28;89376;-33
2023/10/11 11:06:46;;;;;;;26.75;15.98;;;17.70;99.90;;;;;;4958080;28;90315;-32
2023/10/11 11:09:15;;;;;;;23.00;16.67;;;17.80;99.90;;;;;;4958037;28;90137;-33
2023/10/11 11:11:41;;;;;;;18.75;13.65;;;17.90;99.90;;;;;;4970802;28;89661;-34
2023/10/11 11:14:14;;;;;;;23.80;14.43;;;18.00;99.90;;;;;;4977940;28;89659;-35
2023/10/11 11:16:43;;;;;;;15.98;13.88;;;18.10;99.90;;;;;;4976401;28;87718;-33
2023/10/11 11:19:16;;;;;;;24.73;12.82;;;18.20;99.90;;;;;;4977648;28;90211;-32
2023/10/11 11:21:45;;;;;;;20.70;11.80;;;18.30;99.90;;;;;;4957730;28;90422;-32
2023/10/11 11:24:15;;;;;;;17.88;11.57;;;18.30;99.90;;;;;;4967664;28;91376;-33
2023/10/11 11:26:41;;;;;;;17.88;10.57;;;18.30;99.90;;;;;;4958521;28;88279;-31
2023/10/11 11:29:14;;;;;;;22.25;11.68;;;18.40;99.90;;;;;;4954078;28;89811;-30
2023/10/11 11:31:53;;;;;;;17.08;9.57;;;18.40;99.90;;;;;;4962734;28;89765;-34
2023/10/11 11:37:20;;;;;;;15.00;8.38;;;18.50;99.90;;;;;;4950241;28;89924;-32
2023/10/11 11:39:52;;;;;;;12.50;8.35;;;18.60;99.90;;;;;;4965573;28;90584;-33
2023/10/11 11:42:23;;;;;;;10.38;7.22;;;18.70;99.90;;;;;;4965529;28;89667;-32
2023/10/11 11:44:49;;;;;;;13.63;8.93;;;18.80;99.90;;;;;;4971175;28;89784;-33
2023/10/11 11:47:21;;;;;;;9.57;7.22;;;18.70;99.90;;;;;;4936931;28;89495;-35
2023/10/11 11:49:47;;;;;;;12.35;8.07;;;18.70;99.90;;;;;;4981831;28;90454;-33
2023/10/11 11:52:16;;;;;;;14.15;7.90;;;18.70;99.90;;;;;;4978319;28;89689;-34
2023/10/11 11:54:43;;;;;;;9.50;6.78;;;18.70;99.90;;;;;;4980770;28;88535;-34
2023/10/11 11:57:09;;;;;;;11.68;6.35;;;18.80;99.90;;;;;;4977758;28;90409;-35
2023/10/11 11:59:36;;;;;;;13.77;6.88;;;18.80;99.90;;;;;;4973245;28;89523;-35
2023/10/11 12:02:02;;;;;;;10.23;6.22;;;18.80;99.90;;;;;;4967599;28;88502;-32
2023/10/11 12:04:32;;;;;;;8.23;5.25;;;18.80;99.90;;;;;;4970582;28;89339;-34
2023/10/11 12:07:07;;;;;;;11.60;5.65;;;18.90;99.90;;;;;;4967182;28;89672;-35
2023/10/11 12:09:38;;;;;;;6.05;4.95;;;18.90;99.90;;;;;;4977985;28;90333;-36
2023/10/11 12:12:05;;;;;;;18.70;6.85;;;18.90;99.90;;;;;;4961595;28;90901;-35
2023/10/11 12:14:38;;;;;;;8.00;6.00;;;18.90;99.90;;;;;;4967277;28;90880;-33
2023/10/11 12:17:10;;;;;;;6.68;6.00;;;19.00;99.90;;;;;;4978074;28;88082;-34
2023/10/11 12:19:42;;;;;;;6.55;5.90;;;19.00;99.90;;;;;;4980989;28;90606;-33
2023/10/11 12:22:13;;;;;;;6.82;5.63;;;19.00;99.90;;;;;;4978406;28;89996;-35
2023/10/11 12:24:44;;;;;;;13.50;5.32;;;19.00;99.90;;;;;;4967345;28;89666;-33
2023/10/11 12:27:11;;;;;;;9.88;5.82;;;19.00;99.90;;;;;;4981587;28;89488;-33
2023/10/11 12:29:37;;;;;;;11.18;6.45;;;19.00;99.90;;;;;;4966135;28;90448;-33
2023/10/11 12:32:04;;;;;;;11.75;6.00;;;19.10;99.90;;;;;;4980283;28;89303;-35
2023/10/11 12:34:31;;;;;;;8.30;5.00;;;19.10;99.90;;;;;;4979601;28;89571;-33
2023/10/11 12:36:57;;;;;;;8.40;5.80;;;19.20;99.90;;;;;;4963955;28;89830;-34
2023/10/11 12:39:29;;;;;;;6.10;5.50;;;19.20;99.90;;;;;;4957132;28;90087;-35
2023/10/11 12:41:56;;;;;;;7.53;4.85;;;19.20;99.90;;;;;;4968086;28;89294;-33
2023/10/11 12:44:22;;;;;;;8.02;5.13;;;19.30;99.90;;;;;;4958876;28;88721;-33
2023/10/11 12:46:50;;;;;;;10.68;5.85;;;19.40;99.90;;;;;;4959884;28;89304;-33
2023/10/11 12:49:16;;;;;;;11.38;6.90;;;19.40;99.90;;;;;;4961486;28;90055;-31
2023/10/11 12:51:44;;;;;;;8.07;6.13;;;19.30;99.90;;;;;;4960139;28;90177;-33
2023/10/11 12:54:14;;;;;;;6.05;5.47;;;19.30;99.90;;;;;;4959325;28;90021;-34
2023/10/11 12:56:42;;;;;;;8.05;5.50;;;19.30;99.90;;;;;;4961359;28;89209;-35
2023/10/11 12:59:15;;;;;;;11.77;5.78;;;19.40;99.90;;;;;;4959648;28;90372;-33
2023/10/11 13:01:49;;;;;;;8.00;6.05;;;19.40;99.90;;;;;;4966686;28;89604;-30
2023/10/11 13:04:23;;;;;;;13.85;6.63;;;19.30;99.90;;;;;;4956157;28;90078;-31
2023/10/11 13:06:50;;;;;;;15.73;8.10;;;19.40;99.90;;;;;;4971945;28;88893;-33
2023/10/11 13:09:21;;;;;;;10.23;6.07;;;19.40;99.90;;;;;;4974916;28;90251;-33
2023/10/11 13:11:47;;;;;;;8.75;6.13;;;19.40;99.90;;;;;;4973278;28;90019;-35
2023/10/11 13:14:20;;;;;;;9.77;5.68;;;19.40;99.90;;;;;;4959035;28;88817;-33
2023/10/11 13:16:54;;;;;;;9.82;6.28;;;19.40;99.90;;;;;;4955981;28;88820;-34
2023/10/11 13:19:20;;;;;;;8.90;5.95;;;19.40;99.90;;;;;;4957542;28;88517;-33
2023/10/11 13:21:49;;;;;;;9.63;5.78;;;19.30;99.90;;;;;;4957125;28;89667;-36
2023/10/11 13:24:21;;;;;;;10.43;5.95;;;19.30;99.90;;;;;;4957861;28;89701;-33
2023/10/11 13:26:47;;;;;;;11.50;6.45;;;19.30;99.90;;;;;;4956861;28;89794;-31
2023/10/11 13:29:19;;;;;;;11.88;6.63;;;19.30;99.90;;;;;;4938920;28;90465;-31
2023/10/11 13:31:53;;;;;;;8.55;6.30;;;19.30;99.90;;;;;;4920382;28;89652;-34
2023/10/11 13:34:19;;;;;;;9.77;5.72;;;19.30;99.90;;;;;;4938525;28;90257;-34
2023/10/11 13:36:44;;;;;;;11.13;5.22;;;19.20;99.90;;;;;;4951565;28;87864;-33
2023/10/11 13:39:46;;;;;;;7.45;5.57;;;19.20;99.90;;;;;;4951065;28;90004;-32
2023/10/11 13:42:09;;;;;;;7.50;5.45;;;19.20;99.90;;;;;;4944538;28;89336;-33
2023/10/11 13:44:37;;;;;;;11.13;5.55;;;19.20;99.90;;;;;;4956867;28;89341;-36